Get Adobe Flash player

РУС

ENG

 
  Pireps - S7
 

Рейс SBIS7 1215

  • Выполнял: Andrey Mamontov
  • Аэропорт отправления: Domodedovo Airport (UUDD)
  • Аэропорт назначения: Mineralnie Vodi (URMM)
  • Тип ВС: A321-200 (VQ-BQH)
  • Время полёта: 02.07
  • Дата полёта: 04.09.2017
  • Маршрут: DK DV1D FV R11 US A722 PT R11 NOSAK
  • Статус: Одобрен

Детали полёта
Gross Revenue:
(156 load / $ 595.00 per unit
$ 92, 820.00
Fuel Cost:
(6449 fuel used @ 5.1 / unit)
$ 32, 889.90


Дополнительная информация о полёте:

Лог

Aircraft Used in flight is Airbus A321 Airbus F-WWIA
19:00 Boarding
19:00 Navigation Lights ON at 600 AGL
19:00 Brakes are On
19:03 Beacon Lights ON at 600 AGL
19:05 Engine 1 Started
19:05 Engine 2 Started
19:06 Spoilers Armed
19:07Flaps 2 Selected at 600ft and 3kts
19:07 Taxi Lights ON at 600 AGL
19:07 Brakes are Released
19:13 Landing Lights ON at 600 AGL
19:13 Strobe Lights ON at 600 AGL
19:15 You Took off @ 157 Knots and Flaps at Position 2
Departure Weather
UUDD 041200Z 04003MPS 010V100 9999 SCT030 18/09 Q1018 R88/010095 NOSIGrn
19:15 Paused
19:15 Landing Gear Up @ 167 Knots and 670 Feet
19:15 Unpaused
19:15 Taxi Lights OFF at 700 AGL
19:15 Spoilers Disarmed
19:16Flaps Retracted at 2620ft and 204kts
19:18 You exceeded maximum bank angle
19:18 Landing Lights OFF at 10200 AGL
19:36 TOC Reached
20:53 Landing Lights ON at 9800 AGL
20:53Flaps 1 Selected at 9650ft and 207kts
21:01Flaps 3 Selected at 3010ft and 168kts
21:01 Landing Gear Down @ 165 Knots and 2990 Feet
21:01 Spoilers Armed
21:01 Taxi Lights ON at 3050 AGL
21:04Flaps 5 Selected at 3040ft and 152kts
21:06 You Landed @ 144 Knots and with -250 Vertical Speed
Arrival Weather
URMM 041130Z 12004MPS 9999 NSC 32/10 Q1012 R12/090070 NOSIG RMK QFE731/0975rn
21:06 Spoilers Disarmed
21:06 Paused
21:06Flaps Retracted at 1060ft and 55kts
21:07 Landing Lights OFF at 1060 AGL
21:07 Strobe Lights OFF at 1060 AGL
21:11 Unpaused
21:11 Paused
21:11 Unpaused
21:11 Brakes are On
Pirep logged with S7 Tracking 1.0.0.13


!!! Посадочные фары не выключены при наборе высоты с 5000 ft. до 10 000 ft.: -5%

!!! Превышение допустимого значения вертикальной скорости при посадке: -5%


Общая оценка полета : 90%




Route Map



 
 
   
 
Новости

26.04.2018 - Полеты в X-PLANE

Наш клиент S7 Pad поддерживает полеты как в MFSX, Prepar3d V4, так и в X-PLANE 10 и 11 версиях!
На нашем сайте в разреде загруки есть плагин XPUIPIC for X-plane.
Приятных Вам полетов и мягких посадок!

   
 
Авторизация






Регистрация

Восстановить пароль?

Мы в соц. сетях

      



   
  TeamSpeak3 ts.va-s7.ru


   
 

   
 



   
 


Яндекс.Метрика

www.va-s7.ru 2011-2017
Все права защищены.



Минуточку внимания!
Мы не имеем отношения к торговым маркам "S7" и "Globus" и их представителям.
Эмблемы на сайте являются собственностью соответствующих компаний.

аэронавигационная метеорологическая и любая другая информация с данного ресурса ни в коем случае не должна использоваться для реальных полетов